CDT,Max TemperatureF,Mean TemperatureF,Min TemperatureF,Max Dew PointF,MeanDew PointF,Min DewpointF,Max Humidity, Mean Humidity, Min Humidity, Max Sea Level PressureIn, Mean Sea Level PressureIn, Min Sea Level PressureIn, Max VisibilityMiles, Mean VisibilityMiles, Min VisibilityMiles, Max Wind SpeedMPH, Mean Wind SpeedMPH, Max Gust SpeedMPH,PrecipitationIn, CloudCover, Events, WindDirDegrees
2013-3-1,37,32,26,27,24,19,86,72,52,30.38,30.29,30.23,10,9,6,17,7,25,0.00,6,,337
2013-3-2,46,34,21,26,21,17,85,63,39,30.42,30.32,30.17,10,10,10,8,5,,0.00,0,,322
2013-3-3,66,48,30,33,29,23,75,49,27,30.16,29.88,29.58,10,10,10,24,10,33,0.00,0,,152
2013-3-4,64,50,37,39,36,31,83,59,37,30.05,29.70,29.52,10,10,10,31,13,41,0.00,1,Rain,15
2013-3-5,46,38,28,34,20,17,79,51,34,30.41,30.32,30.13,10,10,10,21,14,34,0.00,0,,328
2013-3-6,48,34,21,22,19,17,85,52,28,30.48,30.35,30.21,10,10,10,13,4,16,0.00,0,,105
2013-3-7,69,52,35,28,24,21,61,37,19,30.20,30.09,30.00,10,10,8,26,16,33,0.00,0,,146
2013-3-8,63,56,50,46,39,28,65,53,38,30.09,30.00,29.91,10,10,10,26,18,34,0.00,4,,149
2013-3-9,62,58,54,57,51,42,94,77,55,29.91,29.70,29.59,10,8,1,24,16,37,0.27,7,Rain-Thunderstorm,170
2013-3-10,53,42,30,46,30,21,86,76,66,30.07,29.86,29.63,10,10,4,23,13,34,0.00,7,Rain,324
2013-3-11,51,38,26,27,20,15,75,52,26,30.07,30.03,29.97,10,10,10,17,8,22,0.00,1,,317
2013-3-12,57,47,35,39,30,25,86,60,32,30.37,30.22,30.05,10,10,10,13,4,21,0.00,3,Rain,9
2013-3-13,59,40,24,27,23,18,89,53,24,30.48,30.39,30.30,10,10,10,14,4,17,0.00,0,,140
2013-3-14,78,58,39,43,35,22,68,44,28,30.27,30.16,30.06,10,10,6,16,8,23,0.00,0,,205
2013-3-15,82,61,41,45,42,37,86,51,25,30.09,29.88,29.70,10,10,10,13,4,16,0.00,0,,201
2013-3-16,64,54,45,44,39,32,77,54,40,29.91,29.80,29.67,10,10,9,29,11,37,0.00,2,,52
2013-3-17,44,40,37,39,35,30,93,82,61,29.91,29.82,29.71,10,8,2,22,14,28,0.00,8,,57
2013-3-18,59,48,35,39,32,19,93,67,23,30.04,29.90,29.73,10,10,8,20,8,29,0.00,4,Rain,354
2013-3-19,59,46,33,29,22,12,75,41,22,30.28,30.14,30.01,10,10,10,18,9,24,0.00,0,,86
2013-3-20,51,39,27,29,21,13,92,52,24,30.43,30.28,30.04,10,10,9,15,6,24,0.00,0,,57
2013-3-21,45,41,37,32,25,18,76,54,39,30.00,29.81,29.71,10,10,10,24,17,33,0.00,6,,108
2013-3-22,52,43,36,34,32,31,86,72,52,29.96,29.90,29.80,10,10,7,15,11,,0.00,6,,41
2013-3-23,39,36,33,37,35,32,93,90,79,29.95,29.85,29.78,10,4,2,18,11,23,0.08,8,Rain-Snow,41
2013-3-24,39,32,28,31,25,17,93,80,43,30.23,30.00,29.88,10,5,1,28,18,41,0.04,6,Snow,332
2013-3-25,39,32,24,21,18,15,78,59,38,30.43,30.33,30.22,10,10,10,22,11,29,0.00,2,,328
2013-3-26,51,34,18,21,18,14,85,54,26,30.48,30.38,30.23,10,10,10,12,2,,0.00,0,,152
2013-3-27,68,52,39,36,27,19,71,39,27,30.22,30.12,30.04,10,10,10,23,13,29,0.00,2,,159
2013-3-28,72,54,37,49,41,31,79,53,41,30.14,30.09,30.03,10,10,10,16,7,,0.00,2,,150
2013-3-29,73,59,46,55,52,44,93,70,53,30.13,30.07,30.01,10,10,4,15,6,20,0.00,3,,112
2013-3-30,80,67,55,57,54,48,94,76,34,30.01,29.94,29.82,10,9,7,14,10,18,0.00,5,Thunderstorm,139
2013-3-31,70,58,46,52,44,34,89,65,28,30.04,29.99,29.92,10,9,2,26,8,39,0.23,2,Rain-Thunderstorm,354